createdAt,value
2022-09-22T00:01:35.693Z,72.76
2022-09-22T00:04:07.329Z,73.07
2022-09-22T00:06:39.477Z,72.59
2022-09-22T00:09:10.397Z,72.12
2022-09-22T00:11:42.555Z,71.89
2022-09-22T00:14:12.876Z,72.21
2022-09-22T00:16:45.005Z,73.31
2022-09-22T00:19:16.391Z,72.35
2022-09-22T00:21:47.343Z,73.28
2022-09-22T00:24:16.683Z,73.22
2022-09-22T00:26:45.470Z,73.12
2022-09-22T00:29:13.951Z,73.72
2022-09-22T00:31:43.411Z,72.53
2022-09-22T00:34:16.469Z,72.82
2022-09-22T00:36:46.469Z,72.96
2022-09-22T00:39:15.905Z,72.75
2022-09-22T00:41:46.055Z,73.36
2022-09-22T00:44:34.191Z,72.95
2022-09-22T00:47:07.680Z,72.99
2022-09-22T00:49:43.317Z,71.88
2022-09-22T00:52:17.466Z,72.86
2022-09-22T00:54:46.153Z,72.70
2022-09-22T00:57:20.533Z,73.13
2022-09-22T00:59:51.558Z,72.14
2022-09-22T01:02:21.269Z,72.97
2022-09-22T01:04:52.148Z,72.81
2022-09-22T01:07:24.115Z,72.40
2022-09-22T01:09:52.978Z,72.74
2022-09-22T01:12:21.392Z,73.24
2022-09-22T01:15:10.594Z,72.88
2022-09-22T01:17:49.004Z,73.17
2022-09-22T01:20:53.379Z,72.67
2022-09-22T01:23:40.125Z,72.32
2022-09-22T01:26:42.602Z,72.88
2022-09-22T01:29:29.272Z,73.05
2022-09-22T01:32:08.199Z,72.45
2022-09-22T01:34:45.959Z,72.55
2022-09-22T01:37:23.427Z,72.81
2022-09-22T01:39:55.658Z,72.14
2022-09-22T01:42:29.147Z,72.98
2022-09-22T01:45:03.060Z,72.40
2022-09-22T01:47:40.835Z,72.55
2022-09-22T01:50:11.969Z,73.19
2022-09-22T01:52:42.651Z,73.17
2022-09-22T01:55:16.275Z,73.13
2022-09-22T01:57:52.810Z,73.18
2022-09-22T02:00:23.311Z,73.55
2022-09-22T02:02:58.826Z,73.40
2022-09-22T02:05:33.521Z,73.49
2022-09-22T02:08:06.846Z,73.68
2022-09-22T02:10:40.496Z,73.43
2022-09-22T02:13:08.995Z,73.26
2022-09-22T02:15:54.839Z,73.30
2022-09-22T02:18:29.172Z,72.99
2022-09-22T02:20:57.943Z,72.66
2022-09-22T02:23:26.654Z,73.68
2022-09-22T02:25:57.141Z,73.35
2022-09-22T02:28:26.917Z,73.79
2022-09-22T02:31:18.638Z,73.94
2022-09-22T02:33:47.855Z,74.15
2022-09-22T02:36:31.966Z,73.79
2022-09-22T02:39:07.419Z,74.09
2022-09-22T02:41:47.299Z,72.70
2022-09-22T02:44:22.706Z,73.39
2022-09-22T02:46:57.309Z,72.77
2022-09-22T02:49:29.376Z,72.82
2022-09-22T02:51:57.905Z,72.89
2022-09-22T02:54:26.251Z,72.34
2022-09-22T02:56:55.134Z,73.08
2022-09-22T02:59:23.484Z,73.36
2022-09-22T03:01:51.875Z,72.86
2022-09-22T03:04:20.271Z,72.18
2022-09-22T03:06:49.974Z,72.12
2022-09-22T03:09:18.331Z,73.38
2022-09-22T03:11:47.049Z,73.47
2022-09-22T03:14:15.427Z,73.76
2022-09-22T03:16:43.954Z,73.00
2022-09-22T03:19:12.495Z,73.57
2022-09-22T03:21:40.878Z,74.07
2022-09-22T03:24:12.746Z,72.51
2022-09-22T03:26:41.086Z,72.85
2022-09-22T03:29:09.463Z,72.85
2022-09-22T03:31:37.859Z,73.04
2022-09-22T03:34:06.249Z,72.74
2022-09-22T03:36:35.320Z,73.09
2022-09-22T03:39:05.134Z,72.58
2022-09-22T03:41:35.168Z,73.23
2022-09-22T03:44:04.558Z,73.00
2022-09-22T03:46:32.949Z,72.64
2022-09-22T03:49:03.320Z,72.38
2022-09-22T03:51:31.812Z,72.23
2022-09-22T03:54:00.313Z,72.49
2022-09-22T03:56:28.841Z,72.68
2022-09-22T03:58:58.625Z,72.87
2022-09-22T04:01:26.977Z,72.67
2022-09-22T04:03:55.447Z,72.65
2022-09-22T04:06:24.182Z,73.34
2022-09-22T04:08:52.520Z,73.05
2022-09-22T04:11:20.971Z,73.25
2022-09-22T04:13:49.386Z,73.66
2022-09-22T04:16:19.411Z,72.71
2022-09-22T04:18:47.883Z,72.80
2022-09-22T04:21:16.251Z,73.25
2022-09-22T04:23:44.591Z,73.03
2022-09-22T04:26:12.985Z,72.63
2022-09-22T04:28:41.429Z,73.12
2022-09-22T04:31:09.839Z,72.90
2022-09-22T04:33:39.697Z,72.99
2022-09-22T04:36:08.420Z,72.56
2022-09-22T04:38:36.823Z,72.46
2022-09-22T04:41:05.472Z,73.00
2022-09-22T04:43:33.960Z,72.80
2022-09-22T04:46:02.402Z,72.94
2022-09-22T04:48:30.825Z,73.19
2022-09-22T04:51:00.830Z,72.93
2022-09-22T04:53:29.145Z,72.22
2022-09-22T04:55:57.510Z,72.06
2022-09-22T04:58:25.951Z,72.89
2022-09-22T05:00:54.974Z,72.78
2022-09-22T05:03:23.411Z,72.33
2022-09-22T05:05:51.750Z,72.61
2022-09-22T05:08:21.549Z,73.47
2022-09-22T05:10:49.967Z,73.03
2022-09-22T05:13:18.420Z,73.22
2022-09-22T05:15:46.777Z,72.92
2022-09-22T05:18:15.167Z,72.15
2022-09-22T05:20:44.785Z,71.85
2022-09-22T05:23:13.273Z,72.58
2022-09-22T05:25:44.250Z,72.38
2022-09-22T05:28:12.690Z,72.61
2022-09-22T05:30:41.322Z,72.25
2022-09-22T05:33:09.707Z,73.10
2022-09-22T05:35:38.066Z,73.00
2022-09-22T05:38:06.409Z,72.36
2022-09-22T05:40:35.052Z,72.17
2022-09-22T05:43:04.970Z,72.30
2022-09-22T05:45:33.515Z,72.27
2022-09-22T05:48:02.310Z,72.80
2022-09-22T05:50:30.728Z,72.38
2022-09-22T05:53:06.740Z,71.96
2022-09-22T05:55:35.675Z,71.98
2022-09-22T05:58:05.589Z,72.07
2022-09-22T06:00:34.276Z,72.49
2022-09-22T06:03:02.772Z,72.49
2022-09-22T06:05:31.267Z,72.54
2022-09-22T06:08:03.522Z,71.99
2022-09-22T06:10:33.554Z,71.85
2022-09-22T06:13:02.972Z,71.24
2022-09-22T06:15:34.211Z,72.40
2022-09-22T06:18:04.265Z,71.68
2022-09-22T06:20:32.638Z,70.99
2022-09-22T06:23:01.127Z,71.32
2022-09-22T06:25:29.761Z,71.76
2022-09-22T06:28:05.004Z,71.31
2022-09-22T06:30:35.274Z,72.17
2022-09-22T06:33:04.077Z,71.45
2022-09-22T06:35:37.807Z,72.38
2022-09-22T06:38:07.519Z,72.21
2022-09-22T06:40:37.510Z,71.82
2022-09-22T06:43:12.179Z,71.97
2022-09-22T06:45:43.248Z,71.58
2022-09-22T06:48:12.461Z,71.32
2022-09-22T06:50:41.310Z,70.14
2022-09-22T06:53:12.830Z,70.82
2022-09-22T06:55:44.097Z,70.64
2022-09-22T06:58:13.791Z,70.63
2022-09-22T07:00:44.389Z,71.12
2022-09-22T07:03:19.685Z,71.25
2022-09-22T07:05:55.775Z,70.64
2022-09-22T07:08:25.138Z,70.15
2022-09-22T07:10:55.446Z,70.88
2022-09-22T07:13:24.202Z,70.40
2022-09-22T07:15:55.524Z,70.01
2022-09-22T07:18:23.906Z,70.63
2022-09-22T07:20:52.289Z,69.36
2022-09-22T07:23:21.469Z,69.19
2022-09-22T07:25:56.501Z,70.29
2022-09-22T07:28:26.064Z,70.11
2022-09-22T07:30:57.426Z,69.95
2022-09-22T07:33:26.100Z,69.90
2022-09-22T07:36:08.966Z,70.62
2022-09-22T07:38:37.593Z,70.19
2022-09-22T07:41:08.022Z,70.65
2022-09-22T07:43:36.658Z,70.50
2022-09-22T07:46:07.467Z,69.69
2022-09-22T07:48:41.517Z,69.53
2022-09-22T07:51:16.591Z,69.06
2022-09-22T07:53:45.876Z,69.00
2022-09-22T07:56:15.910Z,68.85
2022-09-22T07:58:50.203Z,68.95
2022-09-22T08:01:20.981Z,68.97
2022-09-22T08:03:50.927Z,68.95
2022-09-22T08:06:23.550Z,68.83
2022-09-22T08:08:56.530Z,68.45
2022-09-22T08:11:27.344Z,69.43
2022-09-22T08:13:57.570Z,68.80
2022-09-22T08:16:29.868Z,68.91
2022-09-22T08:18:59.887Z,69.14
2022-09-22T08:21:35.450Z,68.49
2022-09-22T08:24:04.774Z,68.64
2022-09-22T08:26:33.642Z,68.78
2022-09-22T08:29:02.222Z,68.31
2022-09-22T08:31:32.601Z,68.49
2022-09-22T08:34:01.088Z,68.69
2022-09-22T08:36:29.653Z,69.05
2022-09-22T08:38:59.957Z,68.63
2022-09-22T08:41:39.145Z,68.61
2022-09-22T08:44:20.281Z,68.85
2022-09-22T08:46:50.966Z,69.13
2022-09-22T08:49:43.283Z,68.42
2022-09-22T08:52:20.946Z,68.04
2022-09-22T08:54:50.173Z,68.29
2022-09-22T08:57:36.922Z,67.56
2022-09-22T09:00:07.920Z,67.69
2022-09-22T09:02:43.112Z,67.76
2022-09-22T09:05:40.983Z,67.46
2022-09-22T09:08:30.478Z,67.59
2022-09-22T09:11:09.068Z,67.44
2022-09-22T09:13:49.547Z,67.55
2022-09-22T09:16:42.101Z,66.65
2022-09-22T09:19:18.012Z,67.17
2022-09-22T09:21:51.957Z,67.94
2022-09-22T09:27:22.373Z,67.66
2022-09-22T09:30:01.599Z,66.86
2022-09-22T09:32:43.490Z,66.34
2022-09-22T09:35:16.142Z,66.90
2022-09-22T09:37:46.914Z,67.81
2022-09-22T09:40:18.418Z,67.70
2022-09-22T09:42:53.324Z,67.66
2022-09-22T09:45:32.019Z,67.25
